logo tempoitalia

Diretta Meteo Saint Gallen-Altenrhein, Svizzeralunedì 31 agosto ore 07:20

Mappa
Sereno 16 °C Poco Nuvoloso 24 Ore: T.min 16 T.max 26
Ponente Nord Km/h 3.7 Punto di rugiada: 16 °C Umidità: 100% Visibilità: 10 Km
Il sole sorge alle: 06:39 Il sole tramonta alle: 20:04
31 Agosto 2026 07:20 tempo osservato: Poco Nuvoloso Poco Nuvoloso 16 100 1018 vento: Nord N 3.7
31 Agosto 2026 06:50 tempo osservato: Molto Nuvoloso Molto Nuvoloso 16 100 1018 vento: Nord E 9.3
31 Agosto 2026 06:20 tempo osservato: Molto Nuvoloso Molto Nuvoloso 16 100 1018 vento: Nord N 3.7
31 Agosto 2026 05:50 tempo osservato: Sereno Sereno 16 100 1018 vento: Nord N 1.8
31 Agosto 2026 05:20 tempo osservato: Sereno Sereno 16 100 1018 vento: Nord N 3.7
31 Agosto 2026 04:50 tempo osservato: Sereno Sereno 16 100 1018 vento: Nord N 3.7
31 Agosto 2026 04:20 tempo osservato: Sereno Sereno 18 88 1018 vento: Nord E 13
31 Agosto 2026 03:50 tempo osservato: Sereno Sereno 18 88 1017 vento: Nord NO 9.3
31 Agosto 2026 03:20 tempo osservato: Pioggia Pioggia 18 88 1018 vento: Nord O 25.9
31 Agosto 2026 02:50 tempo osservato: Nuvoloso Nuvoloso 21 77 1015 vento: Nord O/SO 7.4
31 Agosto 2026 02:20 tempo osservato: Sereno Sereno 21 77 1014 vento: Nord O 11.1
31 Agosto 2026 01:50 tempo osservato: Sereno Sereno 24 53 1014 vento: Nord N 14.8
31 Agosto 2026 01:20 tempo osservato: Sereno Sereno 24 50 1014 vento: Nord S 13
31 Agosto 2026 00:50 tempo osservato: Sereno Sereno 24 50 1015 vento: Nord S 16.7
31 Agosto 2026 00:20 tempo osservato: Sereno Sereno 24 53 1015 vento: Nord S 14.8
30 Agosto 2026 23:50 tempo osservato: Sereno Sereno 24 50 1015 vento: Nord S 16.7
30 Agosto 2026 23:20 tempo osservato: Sereno Sereno 23 60 1015 vento: Nord SE 14.8
30 Agosto 2026 22:50 tempo osservato: Sereno Sereno 23 60 1015 vento: Nord N 7.4
30 Agosto 2026 22:20 tempo osservato: Sereno Sereno 21 73 1016 vento: Nord E/SE 9.3
30 Agosto 2026 21:50 tempo osservato: Sereno Sereno 22 68 1016 vento: Nord N 3.7
30 Agosto 2026 21:20 tempo osservato: Sereno Sereno 22 68 1015 vento: Nord N 5.5
30 Agosto 2026 20:50 tempo osservato: Poco Nuvoloso Poco Nuvoloso 22 68 1015 vento: Nord N 3.7
30 Agosto 2026 20:20 tempo osservato: Sereno Sereno 23 60 1015 vento: Nord N 3.7
30 Agosto 2026 19:50 tempo osservato: Sereno Sereno 23 64 1015 vento: Nord N 3.7
30 Agosto 2026 19:20 tempo osservato: Sereno Sereno 25 57 1015 vento: Nord N 5.5
30 Agosto 2026 18:50 tempo osservato: Sereno Sereno 25 61 1015 vento: Nord N 5.5
30 Agosto 2026 18:20 tempo osservato: Sereno Sereno 25 53 1015 vento: Nord N 5.5
30 Agosto 2026 17:50 tempo osservato: Sereno Sereno 26 54 1016 vento: Nord N 5.5
30 Agosto 2026 17:20 tempo osservato: Poco Nuvoloso Poco Nuvoloso 25 50 1016 vento: Nord N 5.5
30 Agosto 2026 16:50 tempo osservato: Poco Nuvoloso Poco Nuvoloso 25 50 1016 vento: Nord N 5.5
30 Agosto 2026 16:20 tempo osservato: Poco Nuvoloso Poco Nuvoloso 25 50 1016 vento: Nord N/NE 7.4
30 Agosto 2026 15:50 tempo osservato: Poco Nuvoloso Poco Nuvoloso 25 50 1016 vento: Nord N 5.5
30 Agosto 2026 15:20 tempo osservato: Poco Nuvoloso Poco Nuvoloso 25 53 1016 vento: Nord NO 7.4
30 Agosto 2026 14:50 tempo osservato: Poco Nuvoloso Poco Nuvoloso 25 53 1016 vento: Nord N 3.7
30 Agosto 2026 14:20 tempo osservato: Poco Nuvoloso Poco Nuvoloso 24 53 1017 vento: Nord NO 7.4
30 Agosto 2026 13:50 tempo osservato: Sereno Sereno 24 53 1017 vento: Nord N/NE 9.3
30 Agosto 2026 13:20 tempo osservato: Sereno Sereno 24 50 1017 vento: Nord N/NE 11.1
30 Agosto 2026 12:50 tempo osservato: Sereno Sereno 24 57 1017 vento: Nord N 5.5
30 Agosto 2026 12:20 tempo osservato: Sereno Sereno 24 53 1017 vento: Nord N/NE 9.3
30 Agosto 2026 11:50 tempo osservato: Sereno Sereno 24 53 1018 vento: Nord N/NE 7.4
30 Agosto 2026 11:20 tempo osservato: Sereno Sereno 24 50 1018 vento: Nord NE 7.4
30 Agosto 2026 10:50 tempo osservato: Sereno Sereno 23 56 1018 vento: Nord NE 7.4
30 Agosto 2026 10:20 tempo osservato: Sereno Sereno 23 56 1018 vento: Nord N 3.7
30 Agosto 2026 09:50 tempo osservato: Sereno Sereno 22 60 1018 vento: Nord N 3.7
30 Agosto 2026 09:20 tempo osservato: Sereno Sereno 21 68 1018 vento: Nord N 5.5
30 Agosto 2026 08:50 tempo osservato: Sereno Sereno 20 68 1018 vento: Nord N 5.5
30 Agosto 2026 08:20 tempo osservato: Sereno Sereno 18 88 1018 vento: Nord N 3.7
30 Agosto 2026 07:50 tempo osservato: Molto Nuvoloso Molto Nuvoloso 18 88 1018 vento: Nord N 3.7